Pagrindinis puslapis
METAR-TAF:

METAR-TAF

Oro uostai :

Paksė, Laosas

platuma: 15-08-02N, ilguma: 105-46-55E, Aukštis: 107 m

Dabartinis oras

Ataskaita buvo paskelbta 1 valandą ir 58 minutes, ne 12:00 UTC
Vėjas 2 kt iš Rytų
Temperatūra 29°C
Drėgmė 74%
Slėgis 1010 hPa
Matomumas 10 km arba daugiau
Išsisklaidę debesys ne aukštis 2300 ft
Su prošvaistėmis ne aukštis 5000 ft

METAR: VLPS 291200Z 09002KT 9999 SCT023 BKN050 29/24 Q1010 NOSIG

Laikas: 20:58 (13:58 UTC)

Prognozė

Ataskaita buvo paskelbta 2 valandos ir 58 minutes, ne 11:00 UTC
Prognozė galioja nuo 29 metu 12 UTC su 30 metu 12 UTC
Vėjas 4 kt iš Pietų
Matomumas: 7000 m
Išsisklaidę debesys ne aukštis 1600 ft
Mažai debesys ne aukštis 2700 ft, Liūtiniai kamuoliniai debesys.
Su prošvaistėmis ne aukštis 5000 ft
Su prošvaistėmis ne aukštis 10000 ft
perkūnija, lietus

TAF: VLPS 291100Z 2912/3012 18004KT 7000 TSRA SCT016 FEW027CB BKN050 BKN100

Orai ataskaitas ir orų prognozės (METAR, TAF).

turimą stotys yra geltonos ir raudonos taškus žemėlapyje.

Perkelti pele per norėdami pamatyti stoties vardą.

Tada spustelėkite, norėdami matyti oro stebėjimo ir prognozės.

Norėdami pakeisti žemėlapį: spustelėkite ant žalios mygtukų su juodo kryžiaus žemyn,; žalią mygtuką su brūkšneliu, jei norite nutolinti; arba žalių rodyklių gretimoms žemėlapius.


METAR-TAF: